• Join FlightAware (Why Join?)
  • Login
  • US Flag 
04:32AM EST


 

Airport Tracker/Info


-or-


 

Live Flight TrackerFlight Track Log ✈ QJE1930 ✈ 05-Jul-2013 ✈ YPPH / PER - YBRM / BME

Flight Track Log - Related Links

Times and Time Zones

All times are in EDT time to prevent confusion due to time zone crossing. See the QJE1930 flight status page for this flight to view local times or setup timezone preferences in your user account.

Time Position Orientation Groundspeed Altitude Reporting Facility
EDT Latitude Longitude Course Direction KTS MPH feet Rate Location/Type
03:44AM -31.9300 115.9620 151° Southeast 10 12  Level FlightAware
03:44AM -31.9310 115.9620 180° South 7 8 240 Level FlightAware
03:45AM -31.9310 115.9640 90° East 6 7 300 Level FlightAware
03:46AM -31.9300 115.9650 40° Northeast 6 7 360 Level FlightAware
03:46AM -31.9290 115.9660 40° Northeast 8 9 420 Level FlightAware
03:47AM -31.9290 115.9680 90° East 11 13 600 Level FlightAware
03:48AM -31.9320 115.9670 196° South 72 83 780 Level FlightAware
03:48AM -31.9440 115.9640 192° South 155 178 1,380 Level FlightAware
03:48AM -31.9710 115.9560 194° South 164 189 1,300 1,980 Climbing FlightAware
03:49AM -31.9920 115.9500 194° South 198 228 2,000 1,500 Climbing FlightAware
03:49AM -32.0210 115.9540 173° South 221 254 2,700 1,440 Climbing FlightAware
03:50AM -32.0330 115.9670 137° Southeast 241 277 3,100 1,680 Climbing FlightAware
03:50AM -32.0380 115.9790 116° Southeast 246 283 3,400 2,400 Climbing FlightAware
03:50AM -32.0430 115.9990 106° East 252 290 4,100 2,700 Climbing FlightAware
03:50AM -32.0490 116.0260 105° East 259 298 5,000 2,880 Climbing FlightAware
03:51AM -32.0590 116.0680 105° East 265 305 6,500 3,120 Climbing FlightAware
03:51AM -32.0596 116.0700 105° East 247 284 6,800 2,400 Climbing Aus ATC (RADAR)
03:51AM -32.0680 116.1090 105° East 275 316 7,700 2,340 Climbing FlightAware
03:52AM -32.0770 116.1470 106° East 284 327 8,800 2,640 Climbing FlightAware
03:52AM -32.0830 116.1860 100° East 295 339 9,900 2,100 Climbing FlightAware
03:53AM -32.0730 116.2330 76° East 321 369 10,700 1,680 Climbing FlightAware
03:53AM -32.0340 116.2848 76° East 333 383 11,900 1,500 Climbing Aus ATC (RADAR)
03:53AM -32.0320 116.2880 76° East 353 406 11,700 1,200 Descending FlightAware
03:54AM -31.9935 116.3356 76° East 360 414 12,600 1,380 Climbing Aus ATC (RADAR)
03:54AM -31.9840 116.3480 76° East 379 436 12,700 2,100 Climbing FlightAware
03:55AM -31.9449 116.3957 76° East 375 432 14,000 1,860 Climbing Aus ATC (RADAR)
03:55AM -31.9270 116.4150 76° East 396 456 14,100 1,740 Climbing FlightAware
03:55AM -31.8610 116.4530 26° Northeast 401 461 15,500 2,220 Climbing FlightAware
03:56AM -31.7890 116.4930 25° Northeast 403 464 17,200 2,160 Climbing FlightAware
03:57AM -31.7180 116.5320 25° Northeast 409 471 18,600 1,920 Climbing FlightAware
03:57AM -31.6630 116.5610 24° Northeast 416 479 19,600 1,500 Climbing FlightAware
03:58AM -31.5800 116.6050 24° Northeast 432 497 20,600 1,260 Climbing FlightAware
03:59AM -31.4980 116.6490 25° Northeast 446 513 21,500 1,320 Climbing FlightAware
03:59AM -31.4380 116.6810 24° Northeast 453 521 22,300 1,260 Climbing FlightAware
04:00AM -31.3560 116.7250 25° Northeast 463 533 23,100 1,380 Climbing FlightAware
04:01AM -31.2700 116.7700 25° Northeast 466 536 24,300 1,260 Climbing FlightAware
04:01AM -31.3036 116.7521 25° Northeast 463 533 24,100 780 Descending Aus ATC (RADAR)
04:02AM -31.1850 116.8150 24° Northeast 479 551 24,900 1,020 Climbing FlightAware
04:02AM -31.1338 116.8418 24° Northeast 482 555 25,500 900 Climbing Aus ATC (RADAR)
04:02AM -31.1040 116.8580 24° Northeast 489 563 25,500 660 Level FlightAware
04:03AM -31.0290 116.8980 25° Northeast 500 575 25,900 720 Climbing FlightAware
04:03AM -30.9668 116.9306 25° Northeast 502 578 26,400 960 Climbing Aus ATC (RADAR)
04:04AM -30.9270 116.9520 25° Northeast 500 575 26,700 1,140 Climbing FlightAware
04:04AM -30.8520 116.9920 25° Northeast 510 587 27,300 1,320 Climbing FlightAware
04:05AM -30.7650 117.0370 24° Northeast 498 573 28,400 2,040 Climbing FlightAware
04:05AM -30.7003 117.0710 24° Northeast 496 571 29,800 1,920 Climbing Aus ATC (RADAR)
04:06AM -30.6840 117.0800 24° Northeast 489 563 29,700 60 Descending FlightAware
04:06AM -30.5870 117.1300 24° Northeast 498 573 29,900 720 Climbing FlightAware
04:07AM -30.5216 117.1644 24° Northeast 503 579 30,700 900 Climbing Aus ATC (RADAR)
04:07AM -30.5020 117.1740 24° Northeast 508 585 30,500 180 Descending FlightAware
04:08AM -30.4040 117.2260 25° Northeast 513 590 30,900 300 Climbing FlightAware
04:08AM -30.3160 117.2720 24° Northeast 513 590 31,000 60 Climbing FlightAware
04:09AM -30.2290 117.3170 24° Northeast 513 590 31,000  Level FlightAware
04:10AM -30.1420 117.3620 24° Northeast 514 592 31,000  Level FlightAware
04:10AM -30.0540 117.4080 24° Northeast 508 585 31,000 240 Level FlightAware
04:10AM -30.0429 117.4130 24° Northeast 513 590 31,200 240 Climbing Aus ATC (RADAR)
04:11AM -29.9662 117.4527 24° Northeast 517 595 31,200 -300 Level Aus ATC (RADAR)
04:11AM -29.9470 117.4630 24° Northeast 511 588 31,000 120 Descending FlightAware
04:12AM -29.8569 117.5094 24° Northeast 519 597 31,300  Climbing Aus ATC (RADAR)
04:12AM -29.8550 117.5100 24° Northeast 513 590 31,000 -180 Descending FlightAware
04:12AM -29.7792 117.5481 24° Northeast 521 600 31,200  Climbing Aus ATC (RADAR)
04:13AM -29.7750 117.5510 24° Northeast 514 592 31,000 -300 Descending FlightAware
04:13AM -29.6840 117.5980 24° Northeast 513 590 31,000 240 Level FlightAware
04:13AM -29.6805 117.5993 24° Northeast 521 600 31,200  Climbing Aus ATC (RADAR)
04:14AM -29.5950 117.6430 24° Northeast 514 592 31,000 -180 Descending FlightAware
04:15AM -29.5040 117.6900 24° Northeast 516 594 31,000  Level FlightAware
04:15AM -29.4210 117.7320 24° Northeast 523 602 31,000  Level FlightAware
04:16AM -29.3400 117.7730 24° Northeast 524 603 31,000  Level FlightAware
04:16AM -29.2440 117.8220 24° Northeast 525 604 31,000 240 Level FlightAware
04:17AM -29.2479 117.8167 24° Northeast 523 602 31,200 240 Climbing Aus ATC (RADAR)
04:17AM -29.1697 117.8553 24° Northeast 524 603 31,200 -300 Level Aus ATC (RADAR)
04:17AM -29.1540 117.8680 24° Northeast 514 592 31,000  Descending FlightAware
04:18AM -29.0935 117.8966 24° Northeast 522 601 31,200  Climbing Aus ATC (RADAR)
04:18AM -29.0730 117.9090 24° Northeast 514 592 31,000 -300 Descending FlightAware
04:19AM -29.0050 117.9440 24° Northeast 514 592 31,000  Level FlightAware
04:19AM -28.9200 117.9870 24° Northeast 514 592 31,000  Level FlightAware
04:20AM -28.8510 118.0220 24° Northeast 514 592 31,000 120 Level FlightAware
04:20AM -28.7387 118.0709 24° Northeast 522 601 31,200  Climbing Aus ATC (RADAR)
04:21AM -28.7830 118.0570 24° Northeast 514 592 31,000  Descending FlightAware
04:21AM -28.6390 118.1198 24° Northeast 523 602 31,200  Climbing Aus ATC (RADAR)
04:21AM -28.6940 118.1020 24° Northeast 514 592 31,000 -300 Descending FlightAware
04:22AM -28.6280 118.1360 24° Northeast 514 592 31,000 120 Level FlightAware
04:23AM -28.4520 118.2160 24° Northeast 523 602 31,200  Climbing Aus ATC (RADAR)
04:23AM -28.5390 118.1800 24° Northeast 514 592 31,000 -300 Descending FlightAware
04:23AM -28.4730 118.2140 24° Northeast 514 592 31,000  Level FlightAware
04:24AM -28.3840 118.2590 24° Northeast 514 592 31,000  Level FlightAware
04:25AM -28.3160 118.2940 24° Northeast 514 592 31,000  Level FlightAware
04:26AM -28.2290 118.3370 24° Northeast 514 592 31,000  Level FlightAware
04:26AM -27.9689 118.4370 197° South 31,000  Level Aus ATC (Calculated)
04:26AM -28.1630 118.3710 24° Northeast 514 592 31,000  Level FlightAware
04:27AM -28.0720 118.4170 24° Northeast 514 592 31,000  Level FlightAware
04:27AM -27.8180 118.5055 21° North 31,000  Level Aus ATC (Calculated)
04:28AM -27.6860 118.5652 21° North 31,000  Level Aus ATC (Calculated)
04:30AM -27.5194 118.6404 22° Northeast  Level FlightAware Approximate
04:31AM -27.3976 118.6952 22° Northeast  Level FlightAware Approximate
04:31AM -27.2814 118.7473 21° North 31,000  Level Aus ATC (Calculated)
04:32AM -27.2757 118.7499 22° Northeast  Level FlightAware Approximate
04:33AM -27.0945 118.8309 22° Northeast  Level FlightAware Approximate
04:34AM -26.9726 118.8854 22° Northeast  Level FlightAware Approximate
04:35AM -26.8506 118.9397 22° Northeast  Level FlightAware Approximate
04:35AM -26.7036 119.0038 21° North 31,000  Level Aus ATC (Calculated)
04:36AM -26.7286 118.9938 22° Northeast  Level FlightAware Approximate
04:37AM -26.8713 118.9325 201° Southwest  Level FlightAware Approximate
04:38AM -26.7476 118.9816 21° North  Level Estimated
04:39AM -26.6250 119.0339 21° North  Level FlightAware Approximate
04:40AM -26.5023 119.0861 21° North  Level FlightAware Approximate
04:41AM -26.3797 119.1382 21° North  Level FlightAware Approximate
04:42AM -26.2570 119.1901 21° North  Level FlightAware Approximate
04:42AM -25.7287 119.4141 196° South 31,000  Level Aus ATC (Calculated)
04:43AM -26.1343 119.2420 21° North  Level FlightAware Approximate
04:43AM -25.7565 119.4054 21° North 486 559 31,200  Level Aus ATC (RADAR)
04:44AM -25.6701 119.4425 21° North 506 582 31,200  Level Aus ATC (RADAR)
04:44AM -25.6061 119.4686 20° North 504 580 31,200  Level Aus ATC (RADAR)
04:45AM -25.5347 119.4946 18° North 480 552 31,200  Level Aus ATC (RADAR)
04:46AM -25.4267 119.5408 21° North 493 567 31,200  Level Aus ATC (RADAR)
04:46AM -25.3103 119.5878 20° North 486 559 31,200 -120 Level Aus ATC (RADAR)
04:47AM -25.2233 119.6254 21° North 496 571 31,100 -120 Descending Aus ATC (RADAR)
04:48AM -25.1591 119.6521 21° North 495 570 31,100  Level Aus ATC (RADAR)
04:48AM -25.0744 119.6869 20° North 490 564 31,100 60 Level Aus ATC (RADAR)
04:49AM -24.9904 119.7205 20° North 485 558 31,200  Climbing Aus ATC (RADAR)
04:49AM -24.9273 119.7460 20° North 484 557 31,100 -120 Descending Aus ATC (RADAR)
04:50AM -24.8416 119.7818 21° North 489 563 31,100 60 Level Aus ATC (RADAR)
04:51AM -24.7467 119.8204 20° North 484 557 31,200  Climbing Aus ATC (RADAR)
04:51AM -24.6602 119.8559 20° North 495 570 31,100  Descending Aus ATC (RADAR)
04:52AM -24.5757 119.8902 20° North 487 560 31,200  Climbing Aus ATC (RADAR)
04:53AM -24.4363 119.9471 20° North 491 565 31,100 -120 Descending Aus ATC (RADAR)
04:54AM -24.3724 119.9734 21° North 489 563 31,100  Level Aus ATC (RADAR)
04:54AM -24.2987 120.0033 20° North 486 559 31,100  Level Aus ATC (RADAR)
04:55AM -24.2137 120.0377 20° North 486 559 31,100  Level Aus ATC (RADAR)
04:56AM -24.1404 120.0675 20° North 484 557 31,100  Level Aus ATC (RADAR)
04:56AM -24.0458 120.1059 20° North 483 556 31,100 60 Level Aus ATC (RADAR)
04:57AM -23.9383 120.1495 20° North 488 562 31,200  Climbing Aus ATC (RADAR)
04:58AM -23.8213 120.1962 20° North 488 562 31,200 -120 Level Aus ATC (RADAR)
04:59AM -23.7468 120.2263 20° North 487 560 31,100 -120 Descending Aus ATC (RADAR)
04:59AM -23.6708 120.2565 20° North 506 582 31,100  Level Aus ATC (RADAR)
05:00AM -23.5893 120.2901 21° North 493 567 31,100  Level Aus ATC (RADAR)
05:01AM -23.5266 120.3152 20° North 486 559 31,100  Level Aus ATC (RADAR)
05:02AM -23.4648 120.3408 21° North 484 557 31,100 -120 Level Aus ATC (RADAR)
05:02AM -23.3340 120.3930 21° North 487 560 31,000 -120 Descending FlightAware
05:03AM -23.2280 120.4350 20° North 488 562 31,000  Level FlightAware
05:03AM -23.1440 120.4690 20° North 488 562 31,000  Level FlightAware
05:04AM -23.0700 120.4980 20° North 487 560 31,000  Level FlightAware
05:05AM -22.9770 120.5350 20° North 487 560 31,000 60 Level FlightAware
05:05AM -23.1665 120.4592 20° North 485 558 31,100  Climbing Aus ATC (RADAR)
05:06AM -22.8850 120.5710 20° North 487 560 31,000 -120 Descending FlightAware
05:06AM -22.9050 120.5640 198° South 487 560 31,000  Level FlightAware
05:07AM -22.8400 120.5890 20° North 487 560 31,000  Level FlightAware
05:08AM -22.7540 120.6230 20° North 487 560 31,000 60 Level FlightAware
05:09AM -22.6903 120.6482 20° North 487 560 31,100  Climbing Aus ATC (RADAR)
05:09AM -22.6670 120.6570 20° North 487 560 31,000  Descending FlightAware
05:09AM -22.6065 120.6819 20° North 483 556 31,100  Climbing Aus ATC (RADAR)
05:09AM -22.6010 120.6840 20° North 487 560 31,000  Descending FlightAware
05:10AM -22.4814 120.7318 20° North 476 548 31,100  Climbing Aus ATC (RADAR)
05:10AM -22.5110 120.7190 20° North 487 560 31,000 -180 Descending FlightAware
05:11AM -22.4300 120.7510 20° North 487 560 31,000  Level FlightAware
05:11AM -22.3650 120.7770 20° North 487 560 31,000  Level FlightAware
05:12AM -22.2780 120.8110 20° North 487 560 31,000  Level FlightAware
05:13AM -22.2140 120.8360 20° North 487 560 31,000  Level FlightAware
05:14AM -22.1270 120.8700 20° North 487 560 31,000  Level FlightAware
05:14AM -22.0620 120.8950 20° North 487 560 31,000  Level FlightAware
05:15AM -21.6930 121.0410 20° North 475 547 31,000 60 Level FlightAware
05:16AM -21.7266 121.0272 20° North 476 548 31,100  Climbing Aus ATC (RADAR)
05:16AM -21.6080 121.0740 20° North 475 547 31,000 -180 Descending FlightAware
05:16AM -21.5440 121.1000 21° North 475 547 31,000  Level FlightAware
05:18AM -21.3960 121.1570 20° North 475 547 31,000  Level FlightAware
05:18AM -21.3330 121.1820 20° North 475 547 31,000  Level FlightAware
05:19AM -21.2280 121.2230 20° North 475 547 31,000  Level FlightAware
05:20AM -21.1630 121.2480 20° North 475 547 31,000  Level FlightAware
05:21AM -21.0780 121.2810 20° North 475 547 31,000  Level FlightAware
05:21AM -21.0150 121.3060 20° North 475 547 31,000  Level FlightAware
05:22AM -20.9100 121.3470 20° North 475 547 31,000  Level FlightAware
05:22AM -20.7427 121.4102 199° South 31,000  Level Aus ATC (Calculated)
05:23AM -20.8240 121.3800 20° North 475 547 31,000  Level FlightAware
05:24AM -20.7590 121.4060 21° North 475 547 31,000  Level FlightAware
05:24AM -20.6960 121.4300 20° North 475 547 31,000  Level FlightAware
05:25AM -20.3989 121.5418 20° North 31,000  Level Aus ATC (Calculated)
05:26AM -20.2270 121.6074 360° North 31,000  Level Aus ATC (Calculated)
05:26AM -20.2270 121.6074 15° North 31,000  Level Aus ATC (Calculated)
05:28AM -20.0402 121.6591 15° North  Level Estimated
05:28AM -20.0035 121.6927 North 12,100  Level Aus ATC (Calculated)
05:29AM -19.9143 121.6940 15° North  Level Estimated
05:29AM -19.8568 121.7485 357° North 12,100  Level Aus ATC (Calculated)
05:30AM -19.8036 121.7456 14° North  Level Estimated
05:31AM -19.6691 121.7964 14° North  Level Estimated
05:32AM -19.5426 121.8287 14° North  Level Estimated
05:33AM -19.4161 121.8609 13° North  Level Estimated
05:33AM -19.4135 121.9165 20° North 12,100  Level Aus ATC (Calculated)
05:33AM -19.3525 121.9395 11° North 12,100  Level Aus ATC (Calculated)
05:35AM -19.2036 121.9707 11° North  Level Estimated
05:35AM -19.0666 122.0473 259° West 12,100  Level Aus ATC (Calculated)
05:36AM -19.0759 121.9973 11° North  Level Estimated
05:37AM -18.9252 122.0706 North  Level Estimated
05:37AM -18.8307 122.1359 309° West 12,100  Level Aus ATC (Calculated)
05:38AM -18.7967 122.0919 North  Level Estimated
05:38AM -18.7324 122.1728 340° North 12,100  Level Aus ATC (Calculated)
05:39AM -18.6797 122.1523 North  Level Estimated
05:40AM -18.5788 122.1843 North  Level Estimated
05:41AM -18.4490 122.1940 North  Level Estimated
05:42AM -18.3193 122.2037 North  Level Estimated
05:42AM -18.3147 122.2711 354° North 600  Level Aus ATC (Calculated)
05:44AM -18.1076 122.2490 354° North  Level Estimated
05:45AM -17.9781 122.2352 354° North  Level Estimated
05:45AM -18.1305 122.2532 354° North 600  Level Aus ATC (Calculated)
05:47AM -17.9447 122.2317 354° North  Level Estimated
05:47AM -18.0077 122.2413 355° North 600  Level Aus ATC (Calculated)
05:47AM -17.9463 122.2353 295° West 600  Level Aus ATC (Calculated)
05:49AM -17.9447 122.2317 295° West  Level Estimated
05:50AM -17.9447 122.2317 235° Southwest  Level Estimated
05:51AM -17.9447 122.2317 235° Southwest  Level Estimated
05:52AM -17.9447 122.2317 235° Southwest  Level Estimated
05:53AM -17.9447 122.2317 235° Southwest  Level Estimated
05:54AM -17.9447 122.2317 235° Southwest  Level Estimated
05:55AM -17.9447 122.2317 235° Southwest  Level Estimated
05:56AM -17.9447 122.2317 235° Southwest  Level Estimated
05:57AM -17.9447 122.2317 235° Southwest  Level Estimated
05:58AM -17.9447 122.2317 235° Southwest  Level Estimated
05:59AM -17.9447 122.2317 235° Southwest  Level Estimated
06:00AM -17.9447 122.2317 235° Southwest  Level Estimated
06:01AM -17.9447 122.2317 235° Southwest  Level Estimated
06:02AM -17.9447 122.2317 235° Southwest  Level Estimated
06:03AM -17.9447 122.2317 235° Southwest  Level Estimated
06:04AM -17.9447 122.2317 235° Southwest  Level Estimated